Time;durP1;ratioP1;P1;durP2;ratioP2;P2;SDS_P1;SDS_P2;PMS_P1;PMS_P2;Temp;Humidity;BMP_temperature;BMP_pressure;BME280_temperature;BME280_humidity;BME280_pressure;Samples;Min_cycle;Max_cycle;Signal;HPM_P1;HPM_P2
2023/04/16 00:01:02;;;;;;;1.30;1.20;;;;;;;10.99;66.08;100247.44;5110339;28;20386;-74
2023/04/16 00:03:30;;;;;;;1.40;1.30;;;;;;;10.98;67.17;100240.34;5099589;28;20052;-74
2023/04/16 00:05:59;;;;;;;2.88;1.50;;;;;;;11.06;66.46;100262.72;5111730;28;20047;-74
2023/04/16 00:08:27;;;;;;;6.72;1.75;;;;;;;10.89;66.83;100253.84;5105176;28;20078;-74
2023/04/16 00:10:55;;;;;;;1.98;1.70;;;;;;;10.92;66.93;100251.63;5091493;28;20052;-74
2023/04/16 00:13:26;;;;;;;2.72;1.50;;;;;;;10.83;68.08;100243.25;5091794;28;20344;-74
2023/04/16 00:15:54;;;;;;;1.85;1.55;;;;;;;10.83;68.13;100252.28;5073609;28;20497;-74
2023/04/16 00:18:22;;;;;;;3.45;2.33;;;;;;;10.94;69.01;100252.97;5091355;28;20051;-74
2023/04/16 00:20:50;;;;;;;2.97;2.40;;;;;;;10.79;69.18;100258.63;5099923;28;20039;-74
2023/04/16 00:23:19;;;;;;;5.75;2.40;;;;;;;10.74;70.78;100245.78;5111907;28;20066;-74
2023/04/16 00:25:46;;;;;;;2.85;2.00;;;;;;;10.71;70.57;100249.13;5111613;28;20055;-74
2023/04/16 00:28:14;;;;;;;3.25;2.30;;;;;;;10.57;71.30;100255.25;5111854;28;20047;-74
2023/04/16 00:30:42;;;;;;;2.75;2.30;;;;;;;10.50;72.37;100254.78;5093701;28;20043;-74
2023/04/16 00:33:10;;;;;;;2.45;2.25;;;;;;;10.30;73.85;100255.72;5093573;28;20062;-74
2023/04/16 00:35:40;;;;;;;4.00;2.80;;;;;;;10.26;74.14;100257.44;5093785;28;20039;-74
2023/04/16 00:38:08;;;;;;;3.90;2.47;;;;;;;10.26;74.47;100260.97;5088910;28;20036;-74
2023/04/16 00:40:36;;;;;;;3.80;2.47;;;;;;;10.29;74.04;100265.88;5111771;28;20494;-74
2023/04/16 00:43:05;;;;;;;4.60;2.70;;;;;;;10.39;73.86;100267.72;5091192;28;20052;-74
2023/04/16 00:45:33;;;;;;;5.10;3.17;;;;;;;10.21;74.17;100261.81;5105625;28;20505;-74
2023/04/16 00:48:01;;;;;;;3.58;3.00;;;;;;;10.23;75.93;100269.75;5115092;28;20043;-73
2023/04/16 00:50:30;;;;;;;6.65;3.22;;;;;;;10.11;76.23;100253.69;5093673;28;20044;-73
2023/04/16 00:52:58;;;;;;;3.15;2.85;;;;;;;10.09;76.63;100251.22;5064369;28;20544;-74
2023/04/16 00:55:25;;;;;;;4.15;3.03;;;;;;;10.22;76.04;100260.72;5105753;28;20495;-74
2023/04/16 00:57:53;;;;;;;3.25;2.95;;;;;;;10.12;76.84;100249.06;5111030;28;20066;-74
2023/04/16 01:00:21;;;;;;;3.47;2.80;;;;;;;10.08;77.59;100246.88;5113506;28;20044;-74
2023/04/16 01:02:53;;;;;;;4.18;3.42;;;;;;;10.07;77.02;100271.78;5093400;28;20043;-73
2023/04/16 01:05:21;;;;;;;6.43;3.00;;;;;;;10.12;77.40;100274.47;5103787;28;20051;-74
2023/04/16 01:07:50;;;;;;;6.93;3.50;;;;;;;10.08;77.54;100265.22;5115056;28;20054;-73
2023/04/16 01:10:18;;;;;;;3.55;3.25;;;;;;;10.10;76.94;100254.78;5047779;28;20060;-74
2023/04/16 01:12:46;;;;;;;4.13;3.20;;;;;;;10.13;78.42;100259.72;5094562;28;20471;-73
2023/04/16 01:15:14;;;;;;;4.10;3.08;;;;;;;10.09;77.37;100269.56;5094821;28;20047;-74
2023/04/16 01:17:44;;;;;;;5.43;3.03;;;;;;;9.90;78.11;100261.22;5094590;28;20062;-73
2023/04/16 01:20:13;;;;;;;2.97;2.65;;;;;;;9.84;78.35;100251.41;5076537;28;20390;-74
2023/04/16 01:22:41;;;;;;;2.97;2.65;;;;;;;9.87;78.51;100262.59;5112167;28;20043;-73
2023/04/16 01:25:13;;;;;;;5.45;3.30;;;;;;;9.86;78.44;100260.97;5114885;28;20154;-73
2023/04/16 01:27:41;;;;;;;4.65;3.00;;;;;;;9.81;79.29;100252.78;5114442;28;20044;-73
2023/04/16 01:30:09;;;;;;;4.07;3.20;;;;;;;9.65;79.51;100250.19;5085393;28;20520;-74
2023/04/16 01:32:50;;;;;;;5.20;3.08;;;;;;;9.68;79.57;100249.59;5094768;28;20043;-73
2023/04/16 01:35:18;;;;;;;6.88;3.10;;;;;;;9.60;78.92;100261.13;5103116;28;20421;-74
2023/04/16 01:37:48;;;;;;;4.28;2.95;;;;;;;9.57;79.02;100250.75;5083721;28;20055;-73
2023/04/16 01:40:17;;;;;;;5.45;3.15;;;;;;;9.63;79.21;100251.56;5110871;28;20040;-74
2023/04/16 01:42:45;;;;;;;3.97;2.90;;;;;;;9.53;79.10;100261.41;5078735;28;20040;-73
2023/04/16 01:45:13;;;;;;;4.65;3.30;;;;;;;9.63;79.93;100263.28;5108502;28;20042;-73
2023/04/16 01:47:44;;;;;;;4.63;3.30;;;;;;;9.45;80.45;100266.66;5113695;28;20051;-74
2023/04/16 01:50:12;;;;;;;3.80;2.80;;;;;;;9.37;81.41;100260.69;5114079;28;20052;-74
2023/04/16 01:52:40;;;;;;;4.03;2.92;;;;;;;9.38;82.86;100262.31;5084595;28;20040;-74
2023/04/16 01:55:08;;;;;;;5.07;2.90;;;;;;;9.25;81.61;100257.47;5075221;28;20043;-74
2023/04/16 01:57:37;;;;;;;5.13;3.45;;;;;;;9.37;81.78;100277.06;5092452;28;20050;-74
2023/04/16 02:00:07;;;;;;;3.08;2.65;;;;;;;9.45;80.68;100262.03;5075826;28;20044;-74
2023/04/16 02:02:45;;;;;;;4.65;3.15;;;;;;;9.44;81.32;100268.59;5090968;28;20059;-74
2023/04/16 02:05:19;;;;;;;4.75;2.92;;;;;;;9.33;82.25;100275.97;5095279;28;20043;-74
2023/04/16 02:07:47;;;;;;;3.00;2.80;;;;;;;9.20;82.71;100273.84;5095779;28;20035;-73
2023/04/16 02:10:16;;;;;;;3.72;2.85;;;;;;;9.22;82.34;100263.47;5095297;28;20492;-74
2023/04/16 02:12:45;;;;;;;5.70;3.20;;;;;;;9.30;82.19;100276.56;5095646;28;20032;-74
2023/04/16 02:15:15;;;;;;;5.88;3.10;;;;;;;9.26;82.22;100279.03;5093800;28;20052;-74
2023/04/16 02:17:45;;;;;;;5.38;3.05;;;;;;;9.25;85.03;100277.38;5075125;28;20044;-73
2023/04/16 02:20:13;;;;;;;5.10;3.38;;;;;;;9.15;84.44;100274.69;5097482;28;20043;-73
2023/04/16 02:22:48;;;;;;;4.30;2.95;;;;;;;9.08;84.07;100269.50;5074676;28;20059;-73
2023/04/16 02:25:19;;;;;;;3.42;2.92;;;;;;;8.99;84.55;100282.09;5085480;28;20397;-73
2023/04/16 02:27:50;;;;;;;3.67;3.22;;;;;;;8.93;84.90;100284.03;5106907;28;20045;-74
2023/04/16 02:30:32;;;;;;;6.72;3.38;;;;;;;8.99;83.76;100271.16;5077357;28;20048;-74
2023/04/16 02:33:04;;;;;;;5.97;3.78;;;;;;;9.20;83.47;100279.31;5094412;28;20047;-74
2023/04/16 02:35:34;;;;;;;6.25;2.90;;;;;;;9.09;83.30;100265.69;5095056;28;20047;-74
2023/04/16 02:38:03;;;;;;;3.72;3.20;;;;;;;9.06;83.69;100288.09;5079708;28;20391;-74
2023/04/16 02:40:31;;;;;;;5.50;3.22;;;;;;;9.08;83.91;100285.06;5078033;28;20390;-74
2023/04/16 02:42:59;;;;;;;5.13;3.65;;;;;;;9.03;84.25;100291.38;5085974;28;20383;-73
2023/04/16 02:45:27;;;;;;;3.45;2.95;;;;;;;8.91;84.20;100282.66;5082073;28;20102;-74
2023/04/16 02:47:55;;;;;;;4.03;3.00;;;;;;;8.94;83.86;100293.03;5091640;28;20499;-74
2023/04/16 02:50:23;;;;;;;5.53;3.45;;;;;;;8.96;83.24;100282.66;5074598;28;20047;-73
2023/04/16 02:52:51;;;;;;;3.45;2.78;;;;;;;8.86;83.55;100276.09;5092734;28;20051;-74
2023/04/16 02:55:19;;;;;;;4.07;3.47;;;;;;;8.82;85.44;100294.16;5074519;28;20043;-74
2023/04/16 02:57:47;;;;;;;3.97;3.55;;;;;;;8.73;86.38;100287.59;5092705;28;20048;-74
2023/04/16 03:00:15;;;;;;;4.88;3.33;;;;;;;8.66;87.95;100292.53;5093422;28;20048;-73
2023/04/16 03:02:43;;;;;;;5.40;3.55;;;;;;;8.53;88.20;100282.97;5094748;28;20044;-73
2023/04/16 03:05:11;;;;;;;5.10;3.80;;;;;;;8.50;88.24;100292.47;5094652;28;20043;-74
2023/04/16 03:07:39;;;;;;;5.47;4.15;;;;;;;8.39;88.56;100305.31;5093704;28;20047;-74
2023/04/16 03:10:08;;;;;;;5.03;3.63;;;;;;;8.39;88.25;100296.28;5094482;28;20043;-74
2023/04/16 03:12:36;;;;;;;4.78;3.42;;;;;;;8.43;87.72;100298.22;5094579;28;20039;-73
2023/04/16 03:15:06;;;;;;;5.50;3.85;;;;;;;8.44;88.15;100299.88;5092354;28;20035;-74
2023/04/16 03:17:35;;;;;;;4.45;3.33;;;;;;;8.56;87.56;100313.25;5112374;28;20051;-73
2023/04/16 03:20:03;;;;;;;5.22;3.63;;;;;;;8.59;87.39;100299.06;5106419;28;20052;-73
2023/04/16 03:22:31;;;;;;;3.65;3.25;;;;;;;8.64;86.78;100311.88;5092263;28;20048;-74
2023/04/16 03:25:00;;;;;;;5.50;3.90;;;;;;;8.59;87.37;100323.63;5075087;28;20064;-74
2023/04/16 03:27:28;;;;;;;5.60;4.10;;;;;;;8.56;90.24;100312.44;5073977;28;20044;-73
2023/04/16 03:29:56;;;;;;;5.95;3.83;;;;;;;8.47;89.84;100304.75;5092089;28;20155;-74
2023/04/16 03:32:24;;;;;;;6.22;4.35;;;;;;;8.36;90.22;100313.22;5094490;28;20044;-73
2023/04/16 03:34:52;;;;;;;4.93;3.70;;;;;;;8.28;91.25;100306.38;5093929;28;20528;-74
2023/04/16 03:37:23;;;;;;;6.15;4.10;;;;;;;8.24;92.67;100311.56;5077321;28;20393;-73
2023/04/16 03:39:51;;;;;;;4.22;3.53;;;;;;;8.35;91.32;100328.75;5081709;28;20032;-73
2023/04/16 03:42:18;;;;;;;5.20;3.95;;;;;;;8.26;91.77;100319.47;5111918;28;20047;-74
2023/04/16 03:44:46;;;;;;;5.70;3.67;;;;;;;8.23;90.80;100331.75;5091394;28;20043;-73
2023/04/16 03:47:15;;;;;;;4.05;3.65;;;;;;;8.34;90.38;100344.31;5089340;28;20050;-74
2023/04/16 03:49:45;;;;;;;4.25;3.30;;;;;;;8.48;88.77;100338.31;5093363;28;20051;-74
2023/04/16 03:52:13;;;;;;;6.15;3.53;;;;;;;8.50;87.68;100330.66;5076710;28;20398;-73
2023/04/16 03:54:41;;;;;;;4.50;3.88;;;;;;;8.60;87.54;100330.72;5092102;28;20032;-74
2023/04/16 03:57:27;;;;;;;5.78;3.80;;;;;;;8.46;89.11;100335.84;5112260;28;20047;-73
2023/04/16 04:00:00;;;;;;;3.70;3.20;;;;;;;8.45;89.00;100350.56;5076619;28;20048;-73
2023/04/16 04:02:40;;;;;;;4.47;3.75;;;;;;;8.31;89.33;100330.41;5105052;28;20048;-74
2023/04/16 04:05:16;;;;;;;11.60;4.47;;;;;;;8.30;89.84;100335.03;5077673;28;20047;-74
2023/04/16 04:07:45;;;;;;;4.22;3.38;;;;;;;8.28;90.48;100330.94;5089238;28;20067;-74
2023/04/16 04:10:15;;;;;;;4.75;3.90;;;;;;;8.33;89.98;100337.19;5093616;28;20052;-73
2023/04/16 04:12:43;;;;;;;4.63;3.22;;;;;;;8.29;90.59;100325.22;5093258;28;20044;-74
2023/04/16 04:15:11;;;;;;;5.85;4.15;;;;;;;8.33;89.47;100333.66;5093896;28;20047;-74
2023/04/16 04:17:41;;;;;;;6.40;3.58;;;;;;;8.36;89.43;100338.56;5112542;28;20054;-73
2023/04/16 04:20:10;;;;;;;3.60;3.30;;;;;;;8.33;90.27;100348.09;5097815;28;20074;-73
2023/04/16 04:22:40;;;;;;;6.57;3.90;;;;;;;8.33;89.03;100359.00;5097762;28;20036;-73
2023/04/16 04:25:09;;;;;;;5.07;3.60;;;;;;;8.22;88.69;100343.75;5097840;28;20052;-73
2023/04/16 04:27:37;;;;;;;3.92;3.53;;;;;;;8.23;90.34;100342.66;5097374;28;20043;-74
2023/04/16 04:30:07;;;;;;;6.70;3.70;;;;;;;8.10;90.33;100351.31;5115841;28;20047;-74
2023/04/16 04:32:35;;;;;;;4.20;3.63;;;;;;;8.13;90.75;100358.97;5097629;28;20043;-74
2023/04/16 04:35:03;;;;;;;5.13;3.55;;;;;;;8.09;91.96;100361.41;5097665;28;20047;-73
2023/04/16 04:37:31;;;;;;;8.85;3.65;;;;;;;8.12;90.20;100360.06;5115663;28;20048;-73
2023/04/16 04:40:03;;;;;;;4.13;3.30;;;;;;;8.16;90.00;100369.34;5096134;28;20064;-73
2023/04/16 04:42:31;;;;;;;6.63;4.20;;;;;;;8.26;89.54;100376.72;5093616;28;20039;-73
2023/04/16 04:44:58;;;;;;;7.30;3.63;;;;;;;8.06;91.22;100370.94;5078017;28;20048;-73
2023/04/16 04:47:28;;;;;;;3.65;2.97;;;;;;;8.13;91.87;100386.22;5077836;28;20047;-73
2023/04/16 04:49:56;;;;;;;4.47;3.50;;;;;;;8.01;90.36;100370.94;5107976;28;20044;-73
2023/04/16 04:52:24;;;;;;;4.60;3.60;;;;;;;8.11;89.99;100374.78;5077487;28;20491;-73
2023/04/16 04:54:52;;;;;;;4.22;3.38;;;;;;;8.16;91.23;100386.50;5103497;28;20035;-73
2023/04/16 04:57:20;;;;;;;4.38;3.30;;;;;;;8.24;90.18;100379.72;5096312;28;20043;-73
2023/04/16 04:59:51;;;;;;;4.47;3.30;;;;;;;8.21;89.13;100374.78;5109013;28;20048;-73
2023/04/16 05:02:19;;;;;;;5.10;3.50;;;;;;;8.23;89.02;100380.81;5076739;28;20063;-73
2023/04/16 05:04:47;;;;;;;4.05;3.20;;;;;;;8.44;88.28;100391.75;5102276;28;20043;-73
2023/04/16 05:07:15;;;;;;;7.85;3.25;;;;;;;8.41;88.01;100386.84;5085192;28;20047;-73
2023/04/16 05:09:43;;;;;;;5.03;3.60;;;;;;;8.55;87.06;100389.91;5102007;28;20039;-73
2023/04/16 05:12:11;;;;;;;5.55;3.35;;;;;;;8.70;87.14;100402.75;5092020;28;20077;-73
2023/04/16 05:14:39;;;;;;;3.15;2.70;;;;;;;8.71;86.40;100405.19;5109278;28;20051;-73
2023/04/16 05:17:07;;;;;;;4.03;3.22;;;;;;;8.79;86.09;100401.09;5100369;28;20047;-73
2023/04/16 05:19:35;;;;;;;7.85;3.22;;;;;;;8.91;85.18;100416.38;5112942;28;20036;-72
2023/04/16 05:22:03;;;;;;;8.07;2.97;;;;;;;9.14;84.77;100420.47;5114663;28;20094;-72
2023/04/16 05:24:31;;;;;;;6.68;2.92;;;;;;;9.12;83.26;100417.19;5105836;28;20055;-72
2023/04/16 05:27:00;;;;;;;3.22;2.70;;;;;;;9.25;84.28;100427.56;5109338;28;20063;-73
2023/04/16 05:29:28;;;;;;;4.13;3.00;;;;;;;9.40;83.59;100434.91;5100433;28;20475;-73
2023/04/16 05:31:56;;;;;;;4.00;2.88;;;;;;;9.28;82.42;100420.72;5077601;28;20079;-73
2023/04/16 05:34:23;;;;;;;3.22;2.80;;;;;;;9.26;82.67;100428.38;5094146;28;20105;-73
2023/04/16 05:36:51;;;;;;;3.88;2.70;;;;;;;9.50;82.85;100433.25;5076669;28;20040;-73
2023/04/16 05:39:20;;;;;;;2.40;2.15;;;;;;;9.58;81.21;100435.41;5109294;28;20036;-73
2023/04/16 05:41:47;;;;;;;2.63;2.42;;;;;;;9.59;81.21;100436.25;5111081;28;20048;-73
2023/04/16 05:44:15;;;;;;;4.88;2.92;;;;;;;9.90;80.16;100450.66;5114452;28;20048;-72
2023/04/16 05:46:43;;;;;;;2.60;2.40;;;;;;;10.09;79.87;100450.84;5095236;28;20047;-73
2023/04/16 05:49:11;;;;;;;3.88;2.92;;;;;;;10.03;79.40;100454.69;5114174;28;20482;-73
2023/04/16 05:51:39;;;;;;;3.00;2.40;;;;;;;10.33;78.48;100465.78;5077314;28;20040;-72
2023/04/16 05:54:07;;;;;;;3.00;2.70;;;;;;;10.36;76.01;100462.47;5098367;28;20039;-71
2023/04/16 05:56:35;;;;;;;3.30;3.00;;;;;;;10.36;77.44;100476.16;5095495;28;20054;-71
2023/04/16 05:59:03;;;;;;;7.13;3.00;;;;;;;10.59;74.88;100468.41;5114294;28;20402;-71
2023/04/16 06:01:31;;;;;;;3.97;2.80;;;;;;;10.87;74.24;100475.06;5087826;28;20402;-71
2023/04/16 06:04:01;;;;;;;3.35;2.58;;;;;;;11.08;73.92;100474.91;5095888;28;20044;-72
2023/04/16 06:06:29;;;;;;;4.22;2.55;;;;;;;11.14;72.20;100464.72;5075796;28;20044;-72
2023/04/16 06:08:57;;;;;;;4.10;3.33;;;;;;;11.62;70.43;100469.50;5099823;28;20044;-71
2023/04/16 06:11:26;;;;;;;2.90;2.65;;;;;;;11.74;70.33;100471.88;5073885;28;20048;-71
2023/04/16 06:13:54;;;;;;;3.90;2.72;;;;;;;11.65;70.17;100487.31;5106401;28;20044;-71
2023/04/16 06:16:22;;;;;;;5.20;3.25;;;;;;;11.90;69.84;100472.50;5112467;28;20055;-72
2023/04/16 06:18:50;;;;;;;3.17;2.80;;;;;;;12.00;69.95;100482.53;5113515;28;20040;-72
2023/04/16 06:21:18;;;;;;;6.00;3.40;;;;;;;12.04;70.00;100480.91;5109686;28;20047;-72
2023/04/16 06:23:46;;;;;;;7.55;3.72;;;;;;;11.82;71.25;100478.63;5105991;28;20501;-73
2023/04/16 06:26:13;;;;;;;4.75;4.10;;;;;;;11.69;71.80;100478.22;5099518;28;20070;-73
2023/04/16 06:28:41;;;;;;;4.88;3.80;;;;;;;11.51;73.04;100478.94;5112461;28;20489;-73
2023/04/16 06:31:10;;;;;;;5.53;4.07;;;;;;;11.37;72.45;100470.56;5094323;28;20050;-73
2023/04/16 06:33:40;;;;;;;6.43;4.40;;;;;;;11.37;72.39;100476.03;5112244;28;20063;-73
2023/04/16 06:36:10;;;;;;;6.28;4.22;;;;;;;11.69;71.84;100493.84;5106758;28;20050;-73
2023/04/16 06:38:38;;;;;;;5.30;4.30;;;;;;;11.93;72.51;100482.88;5113424;28;20047;-73
2023/04/16 06:41:06;;;;;;;7.18;4.30;;;;;;;12.09;71.00;100485.50;5108435;28;20047;-73
2023/04/16 06:43:35;;;;;;;6.47;4.35;;;;;;;12.13;71.44;100486.56;5093686;28;20040;-73
2023/04/16 06:46:03;;;;;;;4.43;3.95;;;;;;;12.39;69.50;100488.13;5091906;28;20413;-73
2023/04/16 06:48:31;;;;;;;3.88;3.45;;;;;;;12.38;69.47;100487.34;5095658;28;20040;-73
2023/04/16 06:51:00;;;;;;;6.95;4.15;;;;;;;12.26;71.00;100493.22;5091924;28;20036;-73
2023/04/16 06:53:28;;;;;;;7.50;3.88;;;;;;;12.63;70.13;100499.09;5095702;28;20048;-73
2023/04/16 06:55:56;;;;;;;4.90;4.20;;;;;;;12.65;70.96;100498.78;5112707;28;20086;-73
2023/04/16 06:58:24;;;;;;;5.47;3.63;;;;;;;12.81;69.23;100488.41;5112084;28;20040;-73
2023/04/16 07:00:52;;;;;;;5.88;4.40;;;;;;;13.04;68.06;100492.97;5097264;28;20051;-74
2023/04/16 07:03:20;;;;;;;4.78;4.15;;;;;;;13.16;66.89;100495.25;5097046;28;20429;-73
2023/04/16 07:05:48;;;;;;;4.28;3.67;;;;;;;13.24;68.20;100495.72;5105492;28;20331;-74
2023/04/16 07:08:16;;;;;;;4.22;3.60;;;;;;;13.01;67.55;100488.06;5106478;28;20036;-73
2023/04/16 07:10:48;;;;;;;4.53;3.75;;;;;;;13.51;66.78;100507.91;5093122;28;20043;-73
2023/04/16 07:13:17;;;;;;;7.20;3.85;;;;;;;13.70;65.59;100503.16;5091208;28;20061;-73
2023/04/16 07:15:45;;;;;;;4.80;4.07;;;;;;;13.88;63.95;100506.16;5091337;28;20040;-73
2023/04/16 07:18:15;;;;;;;5.68;4.10;;;;;;;14.07;63.78;100510.72;5090674;28;20052;-74
2023/04/16 07:20:44;;;;;;;4.88;3.20;;;;;;;14.44;61.83;100513.59;5091545;28;20044;-74
2023/04/16 07:23:12;;;;;;;5.10;3.67;;;;;;;13.91;61.19;100508.31;5100402;28;20048;-74
2023/04/16 07:25:40;;;;;;;4.10;3.60;;;;;;;14.10;59.49;100505.47;5112138;28;20061;-74
2023/04/16 07:28:09;;;;;;;5.82;3.80;;;;;;;14.40;60.71;100507.88;5112040;28;20056;-74
2023/04/16 07:30:37;;;;;;;5.07;3.95;;;;;;;14.66;57.68;100504.56;5108248;28;20047;-74
2023/04/16 07:33:04;;;;;;;4.85;3.90;;;;;;;15.13;57.14;100511.78;5111863;28;20478;-73
2023/04/16 07:35:32;;;;;;;7.28;4.15;;;;;;;15.15;53.38;100498.53;5111887;28;20059;-75
2023/04/16 07:38:00;;;;;;;7.30;4.43;;;;;;;14.97;54.05;100509.44;5112184;28;20494;-74
2023/04/16 07:40:28;;;;;;;6.07;4.15;;;;;;;14.36;56.91;100507.69;5111994;28;20371;-74
2023/04/16 07:42:56;;;;;;;8.52;4.45;;;;;;;14.88;55.13;100514.03;5111990;28;20051;-76
2023/04/16 07:45:25;;;;;;;5.50;4.10;;;;;;;15.22;55.27;100511.88;5112077;28;20039;-75
2023/04/16 07:47:53;;;;;;;8.70;4.00;;;;;;;15.54;56.12;100501.72;5112150;28;20375;-77
2023/04/16 07:50:21;;;;;;;6.00;4.05;;;;;;;15.59;54.95;100516.16;5109581;28;20394;-76
2023/04/16 07:52:49;;;;;;;6.68;4.32;;;;;;;15.57;54.69;100509.34;5105908;28;20051;-75
2023/04/16 07:55:19;;;;;;;11.95;4.28;;;;;;;15.71;52.45;100520.28;5109487;28;20599;-75
2023/04/16 07:57:47;;;;;;;7.80;3.95;;;;;;;15.74;55.03;100525.16;5110732;28;20036;-75
2023/04/16 08:00:15;;;;;;;7.35;3.95;;;;;;;16.31;54.26;100528.34;5099685;28;20043;-75
2023/04/16 08:02:43;;;;;;;6.40;4.25;;;;;;;15.91;56.93;100531.91;5111681;28;20394;-75
2023/04/16 08:05:12;;;;;;;5.20;4.05;;;;;;;15.84;53.91;100524.88;5111254;28;20439;-75
2023/04/16 08:07:40;;;;;;;7.25;4.25;;;;;;;16.09;53.61;100521.78;5092569;28;20409;-76
2023/04/16 08:10:08;;;;;;;4.13;3.60;;;;;;;16.11;53.23;100528.63;5106394;28;20044;-75
2023/04/16 08:12:36;;;;;;;4.15;3.45;;;;;;;16.17;54.15;100525.72;5072776;28;20505;-75
2023/04/16 08:15:05;;;;;;;6.70;3.53;;;;;;;16.49;51.27;100523.69;5090083;28;20055;-76
2023/04/16 08:17:33;;;;;;;4.45;3.40;;;;;;;17.29;50.11;100530.91;5090023;28;20060;-76
2023/04/16 08:20:01;;;;;;;4.72;3.63;;;;;;;16.72;50.42;100529.91;5091290;28;20336;-76
2023/04/16 08:22:30;;;;;;;4.93;4.03;;;;;;;16.74;52.07;100537.88;5091444;28;20059;-76
2023/04/16 08:24:58;;;;;;;3.85;3.20;;;;;;;16.95;52.51;100534.50;5091261;28;20040;-76
2023/04/16 08:27:26;;;;;;;5.57;3.83;;;;;;;17.44;50.92;100539.84;5091180;28;20375;-76
2023/04/16 08:29:53;;;;;;;6.03;4.28;;;;;;;17.41;49.59;100538.53;5091108;28;20161;-76
2023/04/16 08:32:21;;;;;;;5.43;3.30;;;;;;;17.50;49.88;100541.28;5092530;28;20070;-76
2023/04/16 08:34:50;;;;;;;4.72;3.53;;;;;;;17.11;49.72;100535.63;5111158;28;20471;-76
2023/04/16 08:37:18;;;;;;;5.30;3.97;;;;;;;17.31;49.31;100536.13;5092557;28;20043;-76
2023/04/16 08:39:45;;;;;;;4.22;3.50;;;;;;;17.33;48.85;100539.38;5111092;28;20071;-76
2023/04/16 08:42:32;;;;;;;5.47;3.92;;;;;;;17.75;49.27;100529.69;5096770;28;20489;-76
2023/04/16 08:45:26;;;;;;;4.85;3.88;;;;;;;17.55;48.18;100535.59;5110628;28;20039;-76
2023/04/16 08:47:54;;;;;;;5.32;4.18;;;;;;;17.91;47.47;100546.56;5107820;28;20046;-76
2023/04/16 08:50:24;;;;;;;7.00;3.88;;;;;;;17.64;47.81;100549.41;5110957;28;20055;-76
2023/04/16 08:52:57;;;;;;;7.05;3.03;;;;;;;17.63;46.67;100550.56;5110827;28;20048;-76
2023/04/16 08:55:35;;;;;;;3.53;2.67;;;;;;;17.35;43.37;100539.84;5099595;28;20036;-76
2023/04/16 08:58:12;;;;;;;7.05;2.60;;;;;;;17.54;41.67;100547.81;5111148;28;20052;-76
2023/04/16 09:00:42;;;;;;;3.20;2.13;;;;;;;18.20;41.70;100540.31;5110763;28;20051;-76
2023/04/16 09:03:11;;;;;;;4.30;2.58;;;;;;;18.54;42.46;100543.22;5109900;28;20052;-76
2023/04/16 09:05:40;;;;;;;2.05;1.92;;;;;;;18.55;41.21;100542.06;5094816;28;20047;-75
2023/04/16 09:08:09;;;;;;;2.22;1.92;;;;;;;18.38;40.84;100543.00;5113893;28;20059;-76
2023/04/16 09:10:37;;;;;;;4.45;2.53;;;;;;;18.13;41.97;100551.06;5095479;28;20050;-75
2023/04/16 09:13:05;;;;;;;3.78;2.42;;;;;;;18.44;41.47;100543.59;5114104;28;20047;-76
2023/04/16 09:15:34;;;;;;;2.90;2.42;;;;;;;18.73;41.54;100541.94;5095283;28;20043;-76
2023/04/16 09:18:02;;;;;;;4.00;2.53;;;;;;;18.25;41.68;100542.88;5113648;28;20058;-77
2023/04/16 09:20:30;;;;;;;5.03;3.03;;;;;;;18.56;44.64;100546.47;5095410;28;20044;-76
2023/04/16 09:22:58;;;;;;;3.78;3.00;;;;;;;18.62;40.33;100545.13;5114670;28;20044;-76
2023/04/16 09:25:26;;;;;;;2.58;2.17;;;;;;;18.88;41.97;100548.84;5095770;28;20048;-76
2023/04/16 09:27:54;;;;;;;2.80;1.70;;;;;;;18.52;41.29;100548.25;5114380;28;20047;-76
2023/04/16 09:30:24;;;;;;;1.98;1.88;;;;;;;18.62;39.79;100545.13;5114587;28;20051;-76
2023/04/16 09:33:15;;;;;;;1.60;1.50;;;;;;;18.31;42.28;100553.75;5114185;28;20047;-76
2023/04/16 09:35:46;;;;;;;1.73;1.50;;;;;;;18.62;39.01;100545.13;5114337;28;20050;-77
2023/04/16 09:38:14;;;;;;;2.35;1.80;;;;;;;18.32;41.94;100556.19;5114411;28;20051;-76
2023/04/16 09:40:42;;;;;;;2.72;1.80;;;;;;;19.27;40.37;100555.09;5114239;28;20059;-75
2023/04/16 09:43:15;;;;;;;1.60;1.50;;;;;;;18.35;40.86;100552.78;5114384;28;20047;-76
2023/04/16 09:45:54;;;;;;;2.22;1.77;;;;;;;18.68;41.52;100545.75;5101324;28;20051;-76
2023/04/16 09:48:29;;;;;;;3.22;2.30;;;;;;;19.06;39.60;100542.06;5093061;28;20058;-75
2023/04/16 09:50:59;;;;;;;2.72;1.88;;;;;;;19.52;39.80;100546.03;5093468;28;20044;-76
2023/04/16 09:53:30;;;;;;;1.70;1.60;;;;;;;19.00;40.16;100540.59;5093729;28;20040;-76
2023/04/16 09:56:02;;;;;;;1.70;1.50;;;;;;;18.70;38.99;100539.84;5075624;28;20052;-76
2023/04/16 09:58:30;;;;;;;2.05;1.83;;;;;;;19.26;38.86;100547.91;5093650;28;20044;-76
2023/04/16 10:01:02;;;;;;;2.22;1.63;;;;;;;19.49;39.69;100544.75;5093380;28;20040;-76
2023/04/16 10:03:31;;;;;;;1.65;1.55;;;;;;;19.09;38.15;100550.84;5093648;28;20055;-76
2023/04/16 10:06:06;;;;;;;2.08;1.58;;;;;;;19.15;39.85;100547.53;5074411;28;20059;-77
2023/04/16 10:08:35;;;;;;;2.83;2.05;;;;;;;18.82;42.54;100547.44;5093386;28;20399;-76
2023/04/16 10:11:03;;;;;;;2.20;2.00;;;;;;;18.83;40.34;100543.50;5093254;28;20060;-76
2023/04/16 10:13:31;;;;;;;2.22;1.60;;;;;;;19.08;38.16;100544.50;5093248;28;20048;-76
2023/04/16 10:15:59;;;;;;;3.35;1.50;;;;;;;19.12;37.95;100541.84;5074938;28;20047;-76
2023/04/16 10:18:28;;;;;;;1.40;1.30;;;;;;;19.10;36.82;100536.63;5093119;28;20505;-77
2023/04/16 10:20:56;;;;;;;2.63;1.25;;;;;;;19.14;36.91;100537.59;5074618;28;20052;-77
2023/04/16 10:23:25;;;;;;;1.73;1.20;;;;;;;19.34;37.27;100535.94;5111285;28;20421;-76
2023/04/16 10:25:54;;;;;;;3.30;1.30;;;;;;;19.64;36.21;100540.53;5112254;28;20040;-76
2023/04/16 10:28:24;;;;;;;0.90;0.90;;;;;;;20.24;37.36;100536.59;5112079;28;20047;-76
2023/04/16 10:30:53;;;;;;;3.08;1.60;;;;;;;20.07;35.67;100534.84;5112211;28;20043;-76
2023/04/16 10:33:24;;;;;;;1.63;1.50;;;;;;;20.02;35.61;100541.44;5113345;28;20047;-78
2023/04/16 10:36:10;;;;;;;2.15;1.85;;;;;;;19.84;35.91;100544.41;5094667;28;20371;-76
2023/04/16 10:38:49;;;;;;;2.47;1.60;;;;;;;19.84;36.44;100552.72;5112879;28;20043;-77
2023/04/16 10:41:21;;;;;;;2.83;1.30;;;;;;;20.17;37.21;100537.16;5094858;28;20039;-77
2023/04/16 10:43:50;;;;;;;1.83;1.00;;;;;;;20.46;35.04;100537.25;5113069;28;20044;-76
2023/04/16 10:46:29;;;;;;;1.60;1.50;;;;;;;20.80;35.37;100524.00;5094058;28;20054;-76
2023/04/16 10:49:02;;;;;;;2.13;1.10;;;;;;;20.71;34.47;100528.91;5112391;28;20047;-77
2023/04/16 10:51:31;;;;;;;2.15;1.60;;;;;;;21.13;34.72;100534.16;5111800;28;20047;-76
2023/04/16 10:54:15;;;;;;;4.97;3.70;;;;;;;20.52;34.55;100519.19;5112428;28;20043;-77
2023/04/16 10:56:45;;;;;;;1.58;1.48;;;;;;;20.43;35.50;100522.09;5112813;28;20046;-76
2023/04/16 10:59:17;;;;;;;2.35;1.70;;;;;;;20.28;34.93;100516.09;5112873;28;20489;-76
2023/04/16 11:01:47;;;;;;;1.35;1.10;;;;;;;20.63;35.48;100522.31;5112815;28;20055;-76
2023/04/16 11:04:18;;;;;;;1.50;1.38;;;;;;;20.02;36.25;100524.78;5112628;28;20052;-76
2023/04/16 11:07:15;;;;;;;2.30;1.80;;;;;;;20.19;37.22;100517.38;5112539;28;20051;-76
2023/04/16 11:09:46;;;;;;;4.28;1.88;;;;;;;20.75;36.18;100521.47;5112437;28;20047;-77
2023/04/16 11:12:17;;;;;;;2.88;1.73;;;;;;;20.76;35.18;100523.09;5112530;28;20048;-76
2023/04/16 11:15:05;;;;;;;1.70;1.55;;;;;;;20.85;34.84;100515.47;5112470;28;20054;-77
2023/04/16 11:17:47;;;;;;;2.20;1.48;;;;;;;21.07;34.01;100510.53;5112520;28;20047;-77
2023/04/16 11:20:16;;;;;;;1.73;1.50;;;;;;;21.27;34.22;100513.44;5112309;28;20051;-76
2023/04/16 11:22:48;;;;;;;1.67;1.58;;;;;;;21.11;33.81;100505.84;5093897;28;20036;-77
2023/04/16 11:25:24;;;;;;;1.63;1.50;;;;;;;21.00;33.34;100513.09;5098324;28;20044;-76
2023/04/16 11:27:53;;;;;;;2.20;2.00;;;;;;;21.02;34.62;100508.78;5111333;28;20051;-76
2023/04/16 11:30:34;;;;;;;3.03;2.72;;;;;;;21.44;34.42;100504.78;5108996;28;20375;-78
2023/04/16 11:33:08;;;;;;;2.35;1.75;;;;;;;20.56;35.32;100505.44;5094340;28;20055;-80
2023/04/16 11:35:40;;;;;;;2.28;1.40;;;;;;;20.24;35.24;100497.72;5092233;28;20059;-80
2023/04/16 11:38:08;;;;;;;2.65;2.05;;;;;;;20.37;35.94;100512.38;5093880;28;20386;-80
2023/04/16 11:40:36;;;;;;;2.63;2.42;;;;;;;20.36;36.83;100491.31;5106691;28;20043;-80